Time;durP1;ratioP1;P1;durP2;ratioP2;P2;SDS_P1;SDS_P2;PMS_P1;PMS_P2;Temp;Humidity;BMP_temperature;BMP_pressure;BME280_temperature;BME280_humidity;BME280_pressure;Samples;Min_cycle;Max_cycle;Signal;HPM_P1;HPM_P2
2022/08/07 00:01:48;;;;;;;0.70;0.70;;;;;;;;;;12700045;28;20031;-75
2022/08/07 00:07:49;;;;;;;0.60;0.60;;;;;;;;;;12700478;28;20044;-75
2022/08/07 00:13:51;;;;;;;;;;;;;;;;;;12699738;28;20039;-76
2022/08/07 00:19:52;;;;;;;0.80;0.80;;;;;;;;;;12699089;28;20319;-76
2022/08/07 00:25:54;;;;;;;;;;;;;;;;;;12680732;28;20645;-77
2022/08/07 00:31:58;;;;;;;1.77;1.40;;;;;;;;;;12680499;28;20282;-80
2022/08/07 00:38:00;;;;;;;1.30;1.20;;;;;;;;;;12680100;28;20285;-80
2022/08/07 00:44:02;;;;;;;1.30;1.20;;;;;;;;;;12697051;28;20047;-80
2022/08/07 00:50:05;;;;;;;1.02;1.02;;;;;;;;;;12679402;28;20035;-80
2022/08/07 00:56:10;;;;;;;1.50;1.40;;;;;;;;;;12697474;28;20024;-80
2022/08/07 01:02:12;;;;;;;1.02;1.02;;;;;;;;;;12679056;28;20023;-80
2022/08/07 01:08:14;;;;;;;0.95;0.95;;;;;;;;;;12662855;28;20039;-79
2022/08/07 01:14:15;;;;;;;0.77;0.77;;;;;;;;;;12678955;28;20039;-80
2022/08/07 01:20:21;;;;;;;0.90;0.73;;;;;;;;;;12696880;28;20036;-75
2022/08/07 01:26:23;;;;;;;1.92;0.70;;;;;;;;;;12678726;28;20415;-79
2022/08/07 01:32:25;;;;;;;1.27;0.80;;;;;;;;;;12661061;28;20035;-76
2022/08/07 01:38:29;;;;;;;1.20;0.73;;;;;;;;;;12677252;28;20056;-77
2022/08/07 01:44:37;;;;;;;0.75;0.75;;;;;;;;;;12676976;28;20046;-75
2022/08/07 01:50:40;;;;;;;1.20;1.10;;;;;;;;;;12695098;28;20024;-75
2022/08/07 01:56:52;;;;;;;1.40;1.00;;;;;;;;;;12675775;28;20032;-76
2022/08/07 02:02:58;;;;;;;1.20;1.10;;;;;;;;;;12676212;28;20042;-75
2022/08/07 02:09:05;;;;;;;1.05;0.90;;;;;;;;;;12695479;28;20038;-75
2022/08/07 02:15:10;;;;;;;1.40;0.98;;;;;;;;;;12675898;28;20027;-75
2022/08/07 02:21:15;;;;;;;2.22;1.00;;;;;;;;;;12694107;28;20040;-74
2022/08/07 02:27:19;;;;;;;1.60;0.85;;;;;;;;;;12675651;28;20044;-76
2022/08/07 02:33:23;;;;;;;1.80;1.00;;;;;;;;;;12677337;28;20031;-76
2022/08/07 02:39:26;;;;;;;0.80;0.80;;;;;;;;;;12694161;28;20408;-76
2022/08/07 02:45:30;;;;;;;1.77;1.13;;;;;;;;;;12676325;28;20399;-76
2022/08/07 02:51:33;;;;;;;0.88;0.80;;;;;;;;;;12675131;28;20387;-75
2022/08/07 02:57:38;;;;;;;2.45;1.10;;;;;;;;;;12693233;28;20039;-74
2022/08/07 03:03:39;;;;;;;1.23;1.13;;;;;;;;;;12694149;28;20040;-75
2022/08/07 03:09:43;;;;;;;1.13;0.95;;;;;;;;;;12685059;28;20039;-75
2022/08/07 03:15:46;;;;;;;1.25;1.15;;;;;;;;;;12683793;28;20046;-75
2022/08/07 03:21:50;;;;;;;1.00;1.00;;;;;;;;;;12683911;28;20054;-75
2022/08/07 03:27:53;;;;;;;1.02;1.00;;;;;;;;;;12683677;28;20420;-75
2022/08/07 03:33:58;;;;;;;0.95;0.95;;;;;;;;;;12683139;28;20514;-75
2022/08/07 03:40:00;;;;;;;1.25;1.15;;;;;;;;;;12681598;28;20058;-75
2022/08/07 03:46:03;;;;;;;1.35;0.88;;;;;;;;;;12682448;28;20035;-75
2022/08/07 03:52:05;;;;;;;1.15;1.10;;;;;;;;;;12665575;28;20057;-75
2022/08/07 03:58:07;;;;;;;0.80;0.80;;;;;;;;;;12701559;28;20031;-76
2022/08/07 04:04:15;;;;;;;0.82;0.80;;;;;;;;;;12665812;28;20486;-75
2022/08/07 04:10:17;;;;;;;1.27;0.98;;;;;;;;;;12681814;28;20028;-76
2022/08/07 04:16:19;;;;;;;1.65;1.50;;;;;;;;;;12663755;28;20058;-75
2022/08/07 04:22:23;;;;;;;1.45;1.35;;;;;;;;;;12680881;28;20027;-75
2022/08/07 04:28:26;;;;;;;1.38;1.27;;;;;;;;;;12680882;28;20050;-75
2022/08/07 04:34:30;;;;;;;1.30;1.20;;;;;;;;;;12663957;28;20044;-75
2022/08/07 04:40:33;;;;;;;1.70;1.52;;;;;;;;;;12680433;28;20034;-76
2022/08/07 04:46:41;;;;;;;1.40;1.30;;;;;;;;;;12680177;28;20377;-81
2022/08/07 04:53:14;;;;;;;2.45;1.17;;;;;;;;;;12663138;28;20050;-76
2022/08/07 04:59:17;;;;;;;0.85;0.82;;;;;;;;;;12658816;28;20050;-76
2022/08/07 05:05:25;;;;;;;1.10;0.88;;;;;;;;;;12697611;28;20047;-76
2022/08/07 05:11:55;;;;;;;2.25;0.95;;;;;;;;;;12662825;28;20036;-81
2022/08/07 05:17:59;;;;;;;0.80;0.80;;;;;;;;;;12675381;28;20043;-81
2022/08/07 05:24:04;;;;;;;1.75;0.80;;;;;;;;;;12661577;28;20070;-81
2022/08/07 05:30:08;;;;;;;0.98;0.98;;;;;;;;;;12678015;28;20518;-76
2022/08/07 05:36:10;;;;;;;0.88;0.88;;;;;;;;;;12677931;28;20056;-76
2022/08/07 05:42:13;;;;;;;1.00;1.00;;;;;;;;;;12677151;28;20023;-76
2022/08/07 05:48:19;;;;;;;1.05;0.70;;;;;;;;;;12677342;28;20066;-75
2022/08/07 05:54:21;;;;;;;0.80;0.80;;;;;;;;;;12676712;28;20040;-75
2022/08/07 06:00:23;;;;;;;;;;;;;;;;;;12660249;28;20422;-76
2022/08/07 06:06:33;;;;;;;0.80;0.80;;;;;;;;;;12678154;28;19919;-75
2022/08/07 06:12:38;;;;;;;0.90;0.90;;;;;;;;;;12676590;28;20054;-75
2022/08/07 06:18:41;;;;;;;1.42;1.27;;;;;;;;;;12694563;28;20388;-75
2022/08/07 06:24:43;;;;;;;;;;;;;;;;;;12676457;28;20031;-75
2022/08/07 06:30:44;;;;;;;1.37;1.20;;;;;;;;;;12675759;28;19908;-76
2022/08/07 06:36:51;;;;;;;2.05;1.25;;;;;;;;;;12675941;28;20062;-76
2022/08/07 06:42:53;;;;;;;2.08;1.45;;;;;;;;;;12684433;28;20043;-75
2022/08/07 06:49:22;;;;;;;1.10;0.90;;;;;;;;;;12672571;28;20051;-79
2022/08/07 06:55:28;;;;;;;1.23;1.02;;;;;;;;;;12685135;28;20043;-79
2022/08/07 07:01:32;;;;;;;1.50;0.93;;;;;;;;;;12703457;28;20486;-80
2022/08/07 07:07:34;;;;;;;2.35;1.13;;;;;;;;;;12704157;28;20039;-80
2022/08/07 07:13:39;;;;;;;0.70;0.70;;;;;;;;;;12668033;28;20036;-80
2022/08/07 07:19:45;;;;;;;0.85;0.85;;;;;;;;;;12702550;28;20031;-81
2022/08/07 07:25:48;;;;;;;0.70;0.70;;;;;;;;;;12702045;28;20046;-81
2022/08/07 07:31:54;;;;;;;0.60;0.60;;;;;;;;;;12701762;28;20035;-80
2022/08/07 07:37:57;;;;;;;0.73;0.70;;;;;;;;;;12701902;28;20409;-79
2022/08/07 07:43:59;;;;;;;0.85;0.47;;;;;;;;;;12682850;28;20070;-80
2022/08/07 07:50:02;;;;;;;0.95;0.73;;;;;;;;;;12681556;28;20468;-80
2022/08/07 07:56:04;;;;;;;1.55;0.95;;;;;;;;;;12700558;28;20035;-79
2022/08/07 08:02:06;;;;;;;1.67;1.20;;;;;;;;;;12669575;28;20035;-79
2022/08/07 08:08:09;;;;;;;2.85;1.52;;;;;;;;;;12681805;28;20055;-80
2022/08/07 08:14:11;;;;;;;1.02;1.02;;;;;;;;;;12681242;28;20034;-79
2022/08/07 08:20:14;;;;;;;2.75;2.30;;;;;;;;;;12699217;28;20039;-79
2022/08/07 08:32:44;;;;;;;1.52;1.17;;;;;;;;;;12698745;28;20046;-74
2022/08/07 08:38:47;;;;;;;1.10;1.00;;;;;;;;;;12663520;28;20539;-75
2022/08/07 08:44:58;;;;;;;1.30;1.20;;;;;;;;;;12697963;28;20035;-75
2022/08/07 08:51:02;;;;;;;1.55;1.45;;;;;;;;;;12697937;28;20471;-75
2022/08/07 08:57:06;;;;;;;1.02;1.00;;;;;;;;;;12679815;28;20464;-75
2022/08/07 09:03:16;;;;;;;2.05;1.10;;;;;;;;;;12697077;28;20038;-76
2022/08/07 09:09:18;;;;;;;1.83;1.45;;;;;;;;;;12698174;28;20039;-76
2022/08/07 09:15:19;;;;;;;1.65;1.38;;;;;;;;;;12696860;28;20027;-76
2022/08/07 09:21:30;;;;;;;2.45;2.25;;;;;;;;;;12678061;28;20027;-74
2022/08/07 09:27:41;;;;;;;1.50;1.40;;;;;;;;;;12677942;28;20036;-74
2022/08/07 09:33:58;;;;;;;1.40;1.30;;;;;;;;;;12677973;28;20392;-75
2022/08/07 09:40:03;;;;;;;1.90;1.80;;;;;;;;;;12677784;28;20060;-75
2022/08/07 09:46:17;;;;;;;2.13;1.90;;;;;;;;;;12695265;28;20044;-76
2022/08/07 09:52:23;;;;;;;1.63;1.52;;;;;;;;;;12696442;28;20059;-76
2022/08/07 09:58:30;;;;;;;1.88;1.77;;;;;;;;;;12694906;28;20027;-76
2022/08/07 10:04:45;;;;;;;1.70;1.60;;;;;;;;;;12676674;28;20036;-75
2022/08/07 10:11:33;;;;;;;1.42;1.33;;;;;;;;;;12677894;28;20039;-75
2022/08/07 10:17:53;;;;;;;1.77;1.67;;;;;;;;;;12438893;28;20041;-75
2022/08/07 10:23:55;;;;;;;1.73;1.45;;;;;;;;;;12694053;28;20058;-75
2022/08/07 10:30:05;;;;;;;2.10;2.00;;;;;;;;;;12693903;28;20036;-75
2022/08/07 10:36:13;;;;;;;2.20;2.10;;;;;;;;;;12694447;28;20048;-80
2022/08/07 10:42:25;;;;;;;2.53;2.42;;;;;;;;;;12659081;28;20530;-80
2022/08/07 10:48:36;;;;;;;2.08;1.98;;;;;;;;;;12679422;28;20075;-80
2022/08/07 10:55:10;;;;;;;1.93;1.77;;;;;;;;;;12693531;28;20035;-79
2022/08/07 11:01:19;;;;;;;1.52;1.42;;;;;;;;;;12605164;28;20293;-79
2022/08/07 11:07:21;;;;;;;2.05;1.48;;;;;;;;;;12659036;28;20047;-80
2022/08/07 11:13:36;;;;;;;1.60;1.45;;;;;;;;;;12675290;28;20036;-80
2022/08/07 11:19:42;;;;;;;2.28;1.88;;;;;;;;;;12658127;28;20487;-81
2022/08/07 11:25:48;;;;;;;1.55;1.10;;;;;;;;;;12696034;28;20396;-81
2022/08/07 11:31:56;;;;;;;2.22;2.05;;;;;;;;;;12684842;28;20137;-81
2022/08/07 11:38:11;;;;;;;1.98;1.88;;;;;;;;;;12701906;28;20537;-81
2022/08/07 11:44:18;;;;;;;3.38;2.30;;;;;;;;;;12683073;28;20085;-80
2022/08/07 11:50:37;;;;;;;2.88;2.67;;;;;;;;;;12683226;28;20039;-75
2022/08/07 11:56:53;;;;;;;3.47;3.17;;;;;;;;;;12682446;28;20039;-74
2022/08/07 12:03:13;;;;;;;2.47;2.28;;;;;;;;;;12700444;28;20067;-75
2022/08/07 12:09:18;;;;;;;2.00;1.90;;;;;;;;;;12682579;28;20506;-74
2022/08/07 12:15:20;;;;;;;2.92;2.72;;;;;;;;;;12681835;28;20036;-74
2022/08/07 12:21:40;;;;;;;1.58;1.55;;;;;;;;;;12699449;28;20032;-75
2022/08/07 12:27:46;;;;;;;2.22;2.05;;;;;;;;;;12664200;28;20032;-75
2022/08/07 12:33:48;;;;;;;2.10;1.98;;;;;;;;;;12698770;28;20035;-76
2022/08/07 12:39:50;;;;;;;2.28;2.10;;;;;;;;;;12698670;28;20051;-75
2022/08/07 12:46:05;;;;;;;1.70;1.60;;;;;;;;;;12698129;28;20046;-74
2022/08/07 12:52:12;;;;;;;2.50;2.35;;;;;;;;;;12698083;28;20057;-75
2022/08/07 12:58:15;;;;;;;2.30;2.20;;;;;;;;;;12697640;28;20031;-75
2022/08/07 13:04:36;;;;;;;2.58;2.35;;;;;;;;;;12697132;28;20048;-75
2022/08/07 13:10:58;;;;;;;2.40;2.30;;;;;;;;;;12697156;28;20400;-75
2022/08/07 13:17:02;;;;;;;2.85;2.65;;;;;;;;;;12679528;28;20036;-76
2022/08/07 13:23:07;;;;;;;1.83;1.73;;;;;;;;;;12678038;28;20031;-76
2022/08/07 13:29:20;;;;;;;2.20;2.10;;;;;;;;;;12678089;28;20038;-76
2022/08/07 13:35:23;;;;;;;2.33;2.17;;;;;;;;;;12677538;28;20058;-74
2022/08/07 13:41:24;;;;;;;2.20;2.10;;;;;;;;;;12693768;28;20399;-76
2022/08/07 13:47:30;;;;;;;1.83;1.73;;;;;;;;;;12694603;28;20047;-75
2022/08/07 13:53:37;;;;;;;1.98;1.88;;;;;;;;;;12676254;28;20035;-75
2022/08/07 13:59:42;;;;;;;1.92;1.83;;;;;;;;;;12692498;28;20027;-76
2022/08/07 14:05:45;;;;;;;1.85;1.75;;;;;;;;;;12657324;28;20354;-74
2022/08/07 14:11:54;;;;;;;2.42;2.30;;;;;;;;;;12673818;28;20043;-75
2022/08/07 14:17:57;;;;;;;1.73;1.63;;;;;;;;;;12691831;28;20039;-75
2022/08/07 14:43:55;;;;;;;1.30;1.20;;;;;;;;;;12788553;27;20883;-75
2022/08/07 14:49:58;;;;;;;1.45;1.38;;;;;;;;;;12788041;27;20519;-73
2022/08/07 14:56:07;;;;;;;1.40;1.30;;;;;;;;;;12789266;27;20035;-74
2022/08/07 15:02:10;;;;;;;1.00;0.98;;;;;;;;;;12788557;27;20035;-75
2022/08/07 15:08:12;;;;;;;0.70;0.70;;;;;;;;;;12788217;27;20053;-74
2022/08/07 15:14:16;;;;;;;0.82;0.82;;;;;;;;;;12786933;27;20423;-76
2022/08/07 15:20:21;;;;;;;0.82;0.82;;;;;;;;;;12785700;27;20027;-75
2022/08/07 15:26:31;;;;;;;1.27;1.08;;;;;;;;;;12785396;27;20032;-74
2022/08/07 15:32:33;;;;;;;0.90;0.90;;;;;;;;;;12785129;27;20035;-74
2022/08/07 15:38:37;;;;;;;0.80;0.80;;;;;;;;;;12766202;27;20047;-74
2022/08/07 15:44:50;;;;;;;0.90;0.90;;;;;;;;;;12750345;27;20038;-73
2022/08/07 15:50:54;;;;;;;1.02;0.82;;;;;;;;;;12748596;27;20039;-74
2022/08/07 15:56:58;;;;;;;1.00;1.00;;;;;;;;;;12748537;27;20042;-75
2022/08/07 16:03:02;;;;;;;2.08;0.90;;;;;;;;;;12748423;27;20423;-75
2022/08/07 16:09:16;;;;;;;2.33;1.42;;;;;;;;;;12748180;27;20117;-74
2022/08/07 16:15:38;;;;;;;1.20;1.20;;;;;;;;;;12732844;27;20681;-74
2022/08/07 16:21:46;;;;;;;1.17;1.10;;;;;;;;;;12730029;27;20101;-75
2022/08/07 16:28:06;;;;;;;1.00;1.00;;;;;;;;;;12746721;27;20043;-73
2022/08/07 16:34:14;;;;;;;1.30;1.00;;;;;;;;;;12746887;27;20035;-75
2022/08/07 16:40:29;;;;;;;1.10;0.98;;;;;;;;;;12747569;27;20533;-74
2022/08/07 16:46:46;;;;;;;1.08;1.08;;;;;;;;;;12747301;27;20031;-74
2022/08/07 16:53:06;;;;;;;2.10;1.90;;;;;;;;;;12745720;27;20047;-75
2022/08/07 16:59:23;;;;;;;1.60;1.50;;;;;;;;;;12746735;27;20451;-74
2022/08/07 17:05:37;;;;;;;1.10;1.08;;;;;;;;;;12745573;27;20031;-74
2022/08/07 17:11:55;;;;;;;1.58;1.45;;;;;;;;;;12745896;27;20043;-73
2022/08/07 17:18:02;;;;;;;1.05;1.05;;;;;;;;;;12744471;27;20031;-75
2022/08/07 17:24:31;;;;;;;1.40;1.30;;;;;;;;;;12746358;27;20050;-74
2022/08/07 17:30:46;;;;;;;0.90;0.90;;;;;;;;;;12729091;27;20062;-74
2022/08/07 17:36:52;;;;;;;1.65;1.20;;;;;;;;;;12746186;27;20031;-73
2022/08/07 17:43:00;;;;;;;0.80;0.80;;;;;;;;;;12746192;27;20051;-74
2022/08/07 17:49:21;;;;;;;2.72;1.40;;;;;;;;;;12728817;27;20047;-74
2022/08/07 17:55:35;;;;;;;1.10;1.10;;;;;;;;;;12745190;27;20035;-73
2022/08/07 18:01:37;;;;;;;1.27;1.20;;;;;;;;;;12728631;27;20034;-74
2022/08/07 18:07:44;;;;;;;1.33;1.30;;;;;;;;;;12745586;27;20388;-74
2022/08/07 18:13:55;;;;;;;1.50;1.40;;;;;;;;;;12746089;27;20375;-74
2022/08/07 18:20:09;;;;;;;1.23;1.13;;;;;;;;;;12745657;27;20050;-75
2022/08/07 18:26:12;;;;;;;0.95;0.95;;;;;;;;;;12744290;27;20027;-74
2022/08/07 18:32:23;;;;;;;0.73;0.73;;;;;;;;;;12745131;27;20411;-74
2022/08/07 18:38:44;;;;;;;0.60;0.60;;;;;;;;;;12744876;28;20399;-75
2022/08/07 18:45:04;;;;;;;0.50;0.50;;;;;;;;;;12744163;27;20027;-74
2022/08/07 18:51:12;;;;;;;0.40;0.40;;;;;;;;;;12744016;28;20049;-75
2022/08/07 18:57:21;;;;;;;0.40;0.40;;;;;;;;;;12726202;28;20042;-73
2022/08/07 19:03:34;;;;;;;0.30;0.30;;;;;;;;;;12743416;27;20038;-74
2022/08/07 19:09:46;;;;;;;0.38;0.38;;;;;;;;;;12740796;28;20047;-74
2022/08/07 19:15:55;;;;;;;0.20;0.20;;;;;;;;;;12745553;27;20043;-74
2022/08/07 19:22:02;;;;;;;0.52;0.10;;;;;;;;;;12752761;27;20045;-74
2022/08/07 19:28:06;;;;;;;0.40;0.20;;;;;;;;;;12752812;27;20468;-74
2022/08/07 19:34:11;;;;;;;0.10;0.10;;;;;;;;;;12734913;27;20056;-73
2022/08/07 19:40:15;;;;;;;0.20;0.20;;;;;;;;;;12751444;27;20133;-74
2022/08/07 19:46:18;;;;;;;0.38;0.20;;;;;;;;;;12752558;27;20027;-74
2022/08/07 19:52:24;;;;;;;1.27;0.32;;;;;;;;;;12752295;27;20043;-75
2022/08/07 19:58:27;;;;;;;0.47;0.40;;;;;;;;;;12752327;27;20035;-74
2022/08/07 20:04:33;;;;;;;0.68;0.50;;;;;;;;;;12751039;27;20031;-75
2022/08/07 20:10:38;;;;;;;0.70;0.45;;;;;;;;;;12750645;27;20050;-75
2022/08/07 20:16:41;;;;;;;0.40;0.40;;;;;;;;;;12733025;27;20035;-75
2022/08/07 20:22:44;;;;;;;0.73;0.43;;;;;;;;;;12731027;27;20471;-75
2022/08/07 20:28:45;;;;;;;0.38;0.38;;;;;;;;;;12750044;27;20046;-74
2022/08/07 20:34:49;;;;;;;0.40;0.40;;;;;;;;;;12750147;27;20039;-74
2022/08/07 20:40:52;;;;;;;0.47;0.47;;;;;;;;;;12750543;27;20055;-74
2022/08/07 20:46:54;;;;;;;0.50;0.50;;;;;;;;;;12749694;27;20027;-75
2022/08/07 20:52:56;;;;;;;0.82;0.60;;;;;;;;;;12749381;27;20050;-74
2022/08/07 20:59:00;;;;;;;0.70;0.70;;;;;;;;;;12749165;27;20054;-74
2022/08/07 21:05:03;;;;;;;0.40;0.40;;;;;;;;;;12747278;27;20031;-74
2022/08/07 21:11:07;;;;;;;0.50;0.50;;;;;;;;;;12748470;27;20428;-74
2022/08/07 21:17:10;;;;;;;0.50;0.50;;;;;;;;;;12747963;27;20395;-75
2022/08/07 21:23:27;;;;;;;0.55;0.55;;;;;;;;;;12748713;27;20055;-73
2022/08/07 21:29:51;;;;;;;0.40;0.40;;;;;;;;;;12752144;27;20043;-74
2022/08/07 21:35:59;;;;;;;0.60;0.60;;;;;;;;;;12745961;27;20027;-74
2022/08/07 21:42:07;;;;;;;0.60;0.60;;;;;;;;;;12746593;27;20493;-74
2022/08/07 21:48:09;;;;;;;0.52;0.52;;;;;;;;;;12746885;27;20042;-74
2022/08/07 21:54:10;;;;;;;;;;;;;;;;;;12747132;27;20038;-74
2022/08/07 22:00:12;;;;;;;0.80;0.80;;;;;;;;;;12745218;27;19907;-74
2022/08/07 22:06:20;;;;;;;0.85;0.85;;;;;;;;;;12746326;27;20034;-74
2022/08/07 22:12:25;;;;;;;1.25;1.10;;;;;;;;;;12744577;27;20047;-74
2022/08/07 22:18:46;;;;;;;0.77;0.73;;;;;;;;;;12727744;27;20065;-74
2022/08/07 22:24:54;;;;;;;1.83;1.00;;;;;;;;;;12745030;27;20030;-74
2022/08/07 22:30:57;;;;;;;1.60;1.50;;;;;;;;;;12726882;28;20055;-74
2022/08/07 22:37:01;;;;;;;1.30;1.20;;;;;;;;;;12743437;28;20035;-74
2022/08/07 22:43:13;;;;;;;1.50;1.40;;;;;;;;;;12726527;28;20051;-74
2022/08/07 22:49:38;;;;;;;0.98;0.98;;;;;;;;;;12727263;27;20083;-73
2022/08/07 22:55:51;;;;;;;1.10;1.00;;;;;;;;;;12755279;27;20035;-73
2022/08/07 23:01:56;;;;;;;0.80;0.80;;;;;;;;;;12736838;27;20038;-74
2022/08/07 23:08:07;;;;;;;0.70;0.70;;;;;;;;;;12736819;27;20487;-73
2022/08/07 23:14:28;;;;;;;1.05;1.05;;;;;;;;;;12754641;27;20058;-74
2022/08/07 23:20:32;;;;;;;0.80;0.80;;;;;;;;;;12754118;27;20384;-74
2022/08/07 23:26:54;;;;;;;1.25;1.23;;;;;;;;;;12752878;27;20031;-74
2022/08/07 23:32:56;;;;;;;;;;;;;;;;;;12753786;27;20484;-75
2022/08/07 23:38:58;;;;;;;1.35;1.25;;;;;;;;;;12752030;27;19927;-74
2022/08/07 23:44:59;;;;;;;;;;;;;;;;;;12753170;27;20031;-74
2022/08/07 23:51:01;;;;;;;1.70;1.60;;;;;;;;;;12752399;27;19922;-74
2022/08/07 23:57:02;;;;;;;1.33;1.27;;;;;;;;;;12754653;27;20035;-74
